createdAt,value
2018-03-19T00:02:13.435Z,16.08
2018-03-19T00:04:41.811Z,14.85
2018-03-19T00:07:10.059Z,13.82
2018-03-19T00:09:37.652Z,15.07
2018-03-19T00:12:05.927Z,14.77
2018-03-19T00:14:34.184Z,13.93
2018-03-19T00:17:01.762Z,15.93
2018-03-19T00:19:30.139Z,16.23
2018-03-19T00:21:58.401Z,17.55
2018-03-19T00:24:26.709Z,14.70
2018-03-19T00:26:54.222Z,16.50
2018-03-19T00:29:21.720Z,14.82
2018-03-19T00:31:49.979Z,15.25
2018-03-19T00:34:17.492Z,14.77
2018-03-19T00:36:45.027Z,14.27
2018-03-19T00:39:12.555Z,15.45
2018-03-19T00:41:40.068Z,14.77
2018-03-19T00:44:07.594Z,16.23
2018-03-19T00:46:35.153Z,15.65
2018-03-19T00:49:03.425Z,14.82
2018-03-19T00:51:31.679Z,14.48
2018-03-19T00:53:59.172Z,17.20
2018-03-19T00:56:26.689Z,16.50
2018-03-19T00:58:54.174Z,14.10
2018-03-19T01:01:22.426Z,15.55
2018-03-19T01:03:49.952Z,17.85
2018-03-19T01:06:17.471Z,16.17
2018-03-19T01:08:45.745Z,15.25
2018-03-19T01:11:14.019Z,15.38
2018-03-19T01:13:42.278Z,15.00
2018-03-19T01:16:09.854Z,12.65
2018-03-19T01:18:38.138Z,15.60
2018-03-19T01:21:06.410Z,19.65
2018-03-19T01:23:34.683Z,16.62
2018-03-19T01:26:02.960Z,17.27
2018-03-19T01:28:31.240Z,15.60
2018-03-19T01:30:59.487Z,17.80
2018-03-19T01:33:27.078Z,16.20
2018-03-19T01:35:55.362Z,16.90
2018-03-19T01:38:23.623Z,17.27
2018-03-19T01:40:51.894Z,15.05
2018-03-19T01:43:20.154Z,16.37
2018-03-19T01:45:47.638Z,17.10
2018-03-19T01:48:16.020Z,15.50
2018-03-19T01:50:44.282Z,19.83
2018-03-19T01:53:13.718Z,19.02
2018-03-19T01:55:41.243Z,18.73
2018-03-19T01:58:08.736Z,16.25
2018-03-19T02:00:36.293Z,17.90
2018-03-19T02:03:03.819Z,15.80
2018-03-19T02:05:31.410Z,17.48
2018-03-19T02:07:58.909Z,18.00
2018-03-19T02:10:26.417Z,13.38
2018-03-19T02:12:54.680Z,16.50
2018-03-19T02:15:22.971Z,17.65
2018-03-19T02:17:51.244Z,17.00
2018-03-19T02:20:19.511Z,15.10
2018-03-19T02:22:47.776Z,16.58
2018-03-19T02:25:16.082Z,16.80
2018-03-19T02:27:43.587Z,19.17
2018-03-19T02:30:11.096Z,16.45
2018-03-19T02:32:38.622Z,17.20
2018-03-19T02:35:06.217Z,18.55
2018-03-19T02:37:33.794Z,16.60
2018-03-19T02:40:01.318Z,17.02
2018-03-19T02:42:29.616Z,16.62
2018-03-19T02:44:57.120Z,17.62
2018-03-19T02:47:24.638Z,18.77
2018-03-19T02:49:52.147Z,19.83
2018-03-19T02:52:19.645Z,17.52
2018-03-19T02:54:47.204Z,21.15
2018-03-19T02:57:15.580Z,17.10
2018-03-19T02:59:43.840Z,17.73
2018-03-19T03:02:11.358Z,16.33
2018-03-19T03:04:38.889Z,17.25
2018-03-19T03:07:06.380Z,20.85
2018-03-19T03:09:33.890Z,18.58
2018-03-19T03:12:02.159Z,17.35
2018-03-19T03:14:30.452Z,18.20
2018-03-19T03:16:58.024Z,18.05
2018-03-19T03:19:25.610Z,20.25
2018-03-19T03:21:53.126Z,17.77
2018-03-19T03:24:21.539Z,20.75
2018-03-19T03:26:49.037Z,20.40
2018-03-19T03:29:16.532Z,22.20
2018-03-19T03:31:44.040Z,21.02
2018-03-19T03:34:11.550Z,20.10
2018-03-19T03:36:39.073Z,21.60
2018-03-19T03:39:06.595Z,21.25
2018-03-19T03:41:34.099Z,19.00
2018-03-19T03:44:01.684Z,21.48
2018-03-19T03:46:29.236Z,21.95
2018-03-19T03:48:56.731Z,17.80
2018-03-19T03:51:24.252Z,20.05
2018-03-19T03:53:52.551Z,18.50
2018-03-19T03:56:20.050Z,20.77
2018-03-19T03:58:47.544Z,22.87
2018-03-19T04:01:15.831Z,20.48
2018-03-19T04:03:44.086Z,21.02
2018-03-19T04:06:12.375Z,18.92
2018-03-19T04:08:40.647Z,20.12
2018-03-19T04:11:09.027Z,21.02
2018-03-19T04:13:37.275Z,19.48
2018-03-19T04:16:04.864Z,20.92
2018-03-19T04:18:33.124Z,19.77
2018-03-19T04:21:01.390Z,22.23
2018-03-19T04:23:28.975Z,21.42
2018-03-19T04:25:57.275Z,17.08
2018-03-19T04:28:24.770Z,18.75
2018-03-19T04:30:52.269Z,19.75
2018-03-19T04:33:20.555Z,19.85
2018-03-19T04:35:48.823Z,18.40
2018-03-19T04:38:17.114Z,20.02
2018-03-19T04:40:45.376Z,20.83
2018-03-19T04:43:13.714Z,20.48
2018-03-19T04:45:41.206Z,19.42
2018-03-19T04:48:08.699Z,19.48
2018-03-19T04:50:36.201Z,18.48
2018-03-19T04:53:03.702Z,21.17
2018-03-19T04:55:32.062Z,20.75
2018-03-19T04:58:00.321Z,23.15
2018-03-19T05:00:28.515Z,18.55
2018-03-19T05:02:57.049Z,18.90
2018-03-19T05:05:24.542Z,21.08
2018-03-19T05:07:52.033Z,20.80
2018-03-19T05:10:20.292Z,20.17
2018-03-19T05:12:48.547Z,22.40
2018-03-19T05:15:16.051Z,17.35
2018-03-19T05:17:43.557Z,18.52
2018-03-19T05:20:11.068Z,23.12
2018-03-19T05:22:38.616Z,20.98
2018-03-19T05:25:06.907Z,19.87
2018-03-19T05:27:34.449Z,21.08
2018-03-19T05:30:02.702Z,25.80
2018-03-19T05:32:30.988Z,19.40
2018-03-19T05:34:58.473Z,21.23
2018-03-19T05:37:25.996Z,17.08
2018-03-19T05:39:53.582Z,17.42
2018-03-19T05:42:21.865Z,20.12
2018-03-19T05:44:50.138Z,19.55
2018-03-19T05:47:18.402Z,17.10
2018-03-19T05:49:46.682Z,18.12
2018-03-19T05:52:14.939Z,20.37
2018-03-19T05:54:43.187Z,18.62
2018-03-19T05:57:10.683Z,21.83
2018-03-19T05:59:38.938Z,18.87
2018-03-19T06:02:06.458Z,18.60
2018-03-19T06:04:33.990Z,20.45
2018-03-19T06:07:02.271Z,20.12
2018-03-19T06:09:30.529Z,19.08
2018-03-19T06:11:58.031Z,20.92
2018-03-19T06:14:25.542Z,16.70
2018-03-19T06:16:53.045Z,20.05
2018-03-19T06:19:20.543Z,16.42
2018-03-19T06:21:48.039Z,21.58
2018-03-19T06:24:16.319Z,19.20
2018-03-19T06:26:43.820Z,20.12
2018-03-19T06:29:11.327Z,20.15
2018-03-19T06:31:39.588Z,17.75
2018-03-19T06:34:07.103Z,20.58
2018-03-19T06:36:34.599Z,23.05
2018-03-19T06:39:02.092Z,18.80
2018-03-19T06:41:29.656Z,21.10
2018-03-19T06:43:57.175Z,19.83
2018-03-19T06:46:24.686Z,21.42
2018-03-19T06:48:52.224Z,17.12
2018-03-19T06:51:20.532Z,16.85
2018-03-19T06:53:48.045Z,18.98
2018-03-19T06:56:16.339Z,21.73
2018-03-19T06:58:44.977Z,18.42
2018-03-19T07:01:12.682Z,19.73
2018-03-19T07:03:40.930Z,21.10
2018-03-19T07:06:08.426Z,19.55
2018-03-19T07:08:35.924Z,19.67
2018-03-19T07:11:03.531Z,18.65
2018-03-19T07:13:31.781Z,20.52
2018-03-19T07:15:59.373Z,19.67
2018-03-19T07:18:27.643Z,24.48
2018-03-19T07:20:55.920Z,20.73
2018-03-19T07:23:24.232Z,22.70
2018-03-19T07:25:51.911Z,20.48
2018-03-19T07:28:19.427Z,22.23
2018-03-19T07:30:47.808Z,21.50
2018-03-19T07:33:16.071Z,19.87
2018-03-19T07:35:44.327Z,22.58
2018-03-19T07:38:11.819Z,20.17
2018-03-19T07:40:39.318Z,17.52
2018-03-19T07:43:06.932Z,19.12
2018-03-19T07:45:36.119Z,18.83
2018-03-19T07:48:04.396Z,17.52
2018-03-19T07:50:32.695Z,18.62
2018-03-19T07:53:00.183Z,16.85
2018-03-19T07:55:27.695Z,19.05
2018-03-19T07:57:55.964Z,16.45
2018-03-19T08:00:23.461Z,17.15
2018-03-19T08:02:50.950Z,17.98
2018-03-19T08:05:18.546Z,19.35
2018-03-19T08:07:46.805Z,17.85
2018-03-19T08:10:14.305Z,17.50
2018-03-19T08:12:41.872Z,17.67
2018-03-19T08:15:09.406Z,19.73
2018-03-19T08:17:37.681Z,16.85
2018-03-19T08:20:05.965Z,16.73
2018-03-19T08:22:34.257Z,17.12
2018-03-19T08:25:01.812Z,17.45
2018-03-19T08:27:29.372Z,15.60
2018-03-19T08:29:56.868Z,15.07
2018-03-19T08:32:24.369Z,12.93
2018-03-19T08:34:52.663Z,14.32
2018-03-19T08:37:20.223Z,13.62
2018-03-19T08:39:47.717Z,13.90
2018-03-19T08:42:15.210Z,15.10
2018-03-19T08:44:42.695Z,13.93
2018-03-19T08:47:10.199Z,12.75
2018-03-19T08:49:37.713Z,14.98
2018-03-19T08:52:05.272Z,13.57
2018-03-19T08:54:32.849Z,13.65
2018-03-19T08:57:00.356Z,15.73
2018-03-19T08:59:28.630Z,14.43
2018-03-19T09:01:56.935Z,14.77
2018-03-19T09:04:24.447Z,13.07
2018-03-19T09:06:51.940Z,13.40
2018-03-19T09:09:20.252Z,14.07
2018-03-19T09:11:47.742Z,13.83
2018-03-19T09:14:15.243Z,13.60
2018-03-19T09:16:43.520Z,13.10
2018-03-19T09:19:11.768Z,14.43
2018-03-19T09:21:39.261Z,13.77
2018-03-19T09:24:07.527Z,14.60
2018-03-19T09:26:35.782Z,13.50
2018-03-19T09:29:03.276Z,14.37
2018-03-19T09:31:31.527Z,12.33
2018-03-19T09:33:59.007Z,11.57
2018-03-19T09:36:27.259Z,11.53
2018-03-19T09:38:54.738Z,13.67
2018-03-19T09:41:23.012Z,12.43
2018-03-19T09:43:51.286Z,12.20
2018-03-19T09:46:19.576Z,14.93
2018-03-19T09:48:47.078Z,10.83
2018-03-19T09:51:19.470Z,13.77
2018-03-19T09:53:47.075Z,10.97
2018-03-19T09:56:14.584Z,13.03
2018-03-19T09:58:42.071Z,12.57
2018-03-19T10:01:09.564Z,11.87
2018-03-19T10:03:37.059Z,11.67
2018-03-19T10:06:04.654Z,12.17
2018-03-19T10:08:32.900Z,12.73
2018-03-19T10:11:00.417Z,11.20
2018-03-19T10:13:27.909Z,11.23
2018-03-19T10:15:55.498Z,11.83
2018-03-19T10:18:23.751Z,11.13
2018-03-19T10:20:51.240Z,11.63
2018-03-19T10:23:19.484Z,10.57
2018-03-19T10:25:47.007Z,11.43
2018-03-19T10:28:14.529Z,11.50
2018-03-19T10:30:42.792Z,11.13
2018-03-19T10:33:10.290Z,11.73
2018-03-19T10:35:37.824Z,8.97
2018-03-19T10:38:06.111Z,12.23
2018-03-19T10:40:33.627Z,13.57
2018-03-19T10:43:01.121Z,10.27
2018-03-19T10:45:29.394Z,10.50
2018-03-19T10:47:57.648Z,10.13
2018-03-19T10:50:25.132Z,10.00
2018-03-19T10:52:53.439Z,9.37
2018-03-19T10:55:20.928Z,10.57
2018-03-19T10:57:48.409Z,9.53
2018-03-19T11:00:15.921Z,9.40
2018-03-19T11:02:49.128Z,11.53
2018-03-19T11:05:31.185Z,11.20
2018-03-19T11:08:05.165Z,9.00
2018-03-19T11:10:32.669Z,9.30
2018-03-19T11:13:00.151Z,8.17
2018-03-19T11:15:27.682Z,9.20
2018-03-19T11:17:55.168Z,10.30
2018-03-19T11:20:22.661Z,9.03
2018-03-19T11:22:50.141Z,11.00
2018-03-19T11:25:18.417Z,10.83
2018-03-19T11:27:46.663Z,9.93
2018-03-19T11:30:14.260Z,11.63
2018-03-19T11:32:42.511Z,9.80
2018-03-19T11:35:10.034Z,9.80
2018-03-19T11:37:37.508Z,9.87
2018-03-19T11:40:05.040Z,10.63
2018-03-19T11:42:32.530Z,8.80
2018-03-19T11:45:00.848Z,10.33
2018-03-19T11:47:28.368Z,9.27
2018-03-19T11:49:55.955Z,11.67
2018-03-19T11:52:24.208Z,9.30
2018-03-19T11:54:51.789Z,10.47
2018-03-19T11:57:20.049Z,10.53
2018-03-19T11:59:47.567Z,9.97
2018-03-19T12:02:15.189Z,10.77
2018-03-19T12:04:43.545Z,9.17
2018-03-19T12:07:11.066Z,10.57
2018-03-19T12:09:38.616Z,8.70
2018-03-19T12:12:06.123Z,8.37
2018-03-19T12:14:33.606Z,8.10
2018-03-19T12:17:01.905Z,8.13
2018-03-19T12:19:29.397Z,8.63
2018-03-19T12:21:57.010Z,9.07
2018-03-19T12:24:24.571Z,9.17
2018-03-19T12:26:52.081Z,8.93
2018-03-19T12:29:19.572Z,10.37
2018-03-19T12:31:47.831Z,9.30
2018-03-19T12:34:16.107Z,7.73
2018-03-19T12:36:43.621Z,7.70
2018-03-19T12:39:11.118Z,7.47
2018-03-19T12:41:38.880Z,7.87
2018-03-19T12:44:06.395Z,8.10
2018-03-19T12:46:35.015Z,7.20
2018-03-19T12:49:02.525Z,7.17
2018-03-19T12:51:30.988Z,8.93
2018-03-19T12:53:58.657Z,6.43
2018-03-19T12:56:26.913Z,8.57
2018-03-19T12:58:54.504Z,7.60
2018-03-19T13:01:22.818Z,10.37
2018-03-19T13:03:50.275Z,9.40
2018-03-19T13:06:17.808Z,9.33
2018-03-19T13:08:45.330Z,8.03
2018-03-19T13:11:13.599Z,10.07
2018-03-19T13:13:41.195Z,10.53
2018-03-19T13:16:09.485Z,9.83
2018-03-19T13:18:37.033Z,8.60
2018-03-19T13:21:04.534Z,9.23
2018-03-19T13:23:32.080Z,10.20
2018-03-19T13:26:00.315Z,8.00
2018-03-19T13:28:28.623Z,7.93
2018-03-19T13:30:56.121Z,8.30
2018-03-19T13:33:23.783Z,8.17
2018-03-19T13:35:51.211Z,8.97
2018-03-19T13:38:18.740Z,8.10
2018-03-19T13:40:47.004Z,8.50
2018-03-19T13:43:15.253Z,9.10
2018-03-19T13:45:42.755Z,7.90
2018-03-19T13:48:10.234Z,8.23
2018-03-19T13:50:37.740Z,7.70
2018-03-19T13:53:05.218Z,7.90
2018-03-19T13:55:33.473Z,7.63
2018-03-19T13:58:01.088Z,11.90
2018-03-19T14:00:28.640Z,7.97
2018-03-19T14:02:56.143Z,10.07
2018-03-19T14:05:23.626Z,7.93
2018-03-19T14:07:51.187Z,9.17
2018-03-19T14:10:19.446Z,8.87
2018-03-19T14:12:46.955Z,8.57
2018-03-19T14:15:14.423Z,9.47
2018-03-19T14:17:41.959Z,11.23
2018-03-19T14:20:09.500Z,13.83
2018-03-19T14:22:37.747Z,9.40
2018-03-19T14:25:05.234Z,23.43
2018-03-19T14:27:33.548Z,14.60
2018-03-19T14:30:01.777Z,7.33
2018-03-19T14:32:29.372Z,9.63
2018-03-19T14:34:56.880Z,8.70
2018-03-19T14:37:24.370Z,9.17
2018-03-19T14:39:52.656Z,9.60
2018-03-19T14:42:20.212Z,9.33
2018-03-19T14:44:47.870Z,8.20
2018-03-19T14:47:16.215Z,8.87
2018-03-19T14:49:43.826Z,7.90
2018-03-19T14:52:11.324Z,7.50
2018-03-19T14:54:38.831Z,13.13
2018-03-19T14:57:06.387Z,9.33
2018-03-19T14:59:33.964Z,10.33
2018-03-19T15:02:01.614Z,9.90
2018-03-19T15:04:29.109Z,14.30
2018-03-19T15:06:56.626Z,12.37
2018-03-19T15:09:24.126Z,10.47
2018-03-19T15:11:51.649Z,10.80
2018-03-19T15:14:19.214Z,10.30
2018-03-19T15:16:46.701Z,8.37
2018-03-19T15:19:14.213Z,8.67
2018-03-19T15:21:41.718Z,8.93
2018-03-19T15:24:09.199Z,8.03
2018-03-19T15:26:36.691Z,9.90
2018-03-19T15:29:04.234Z,9.07
2018-03-19T15:31:31.745Z,10.13
2018-03-19T15:33:59.369Z,8.00
2018-03-19T15:36:26.881Z,8.37
2018-03-19T15:38:54.368Z,8.47
2018-03-19T15:41:21.859Z,8.80
2018-03-19T15:43:49.340Z,8.10
2018-03-19T15:46:16.835Z,10.40
2018-03-19T15:48:44.415Z,11.60
2018-03-19T15:51:12.714Z,8.03
2018-03-19T15:53:40.192Z,7.57
2018-03-19T15:56:08.681Z,8.90
2018-03-19T15:58:36.195Z,8.77
2018-03-19T16:01:05.121Z,8.40
2018-03-19T16:03:32.643Z,8.17
2018-03-19T16:06:00.203Z,9.60
2018-03-19T16:08:28.529Z,10.37
2018-03-19T16:10:56.010Z,7.90
2018-03-19T16:13:23.488Z,8.77
2018-03-19T16:15:51.779Z,8.37
2018-03-19T16:18:19.248Z,10.10
2018-03-19T16:20:46.886Z,8.03
2018-03-19T16:23:15.134Z,10.33
2018-03-19T16:25:42.614Z,9.10
2018-03-19T16:28:10.188Z,8.80
2018-03-19T16:30:38.455Z,11.03
2018-03-19T16:33:06.855Z,12.10
2018-03-19T16:35:34.408Z,11.90
2018-03-19T16:38:02.667Z,12.10
2018-03-19T16:40:30.954Z,18.17
2018-03-19T16:42:58.447Z,9.88
2018-03-19T16:45:25.967Z,10.80
2018-03-19T16:47:54.243Z,8.67
2018-03-19T16:50:22.558Z,11.23
2018-03-19T16:52:50.035Z,8.77
2018-03-19T16:55:17.539Z,10.43
2018-03-19T16:57:45.916Z,9.00
2018-03-19T17:00:14.169Z,10.17
2018-03-19T17:02:41.663Z,10.50
2018-03-19T17:05:09.172Z,17.93
2018-03-19T17:07:36.666Z,10.83
2018-03-19T17:10:04.968Z,10.35
2018-03-19T17:12:33.319Z,9.82
2018-03-19T17:15:00.985Z,9.00
2018-03-19T17:17:29.263Z,10.13
2018-03-19T17:19:57.540Z,12.65
2018-03-19T17:22:25.811Z,12.57
2018-03-19T17:24:54.085Z,12.77
2018-03-19T17:27:22.368Z,12.05
2018-03-19T17:29:50.627Z,12.65
2018-03-19T17:32:18.335Z,12.68
2018-03-19T17:34:45.833Z,12.43
2018-03-19T17:37:13.343Z,13.48
2018-03-19T17:39:41.859Z,22.42
2018-03-19T17:42:09.396Z,24.55
2018-03-19T17:44:36.918Z,26.70
2018-03-19T17:47:04.503Z,24.00
2018-03-19T17:49:31.991Z,17.92
2018-03-19T17:51:59.539Z,18.75
2018-03-19T17:54:27.056Z,14.57
2018-03-19T17:56:54.650Z,18.10
2018-03-19T17:59:22.202Z,55.12
2018-03-19T18:01:49.751Z,448.52
2018-03-19T18:04:17.352Z,412.17
2018-03-19T18:06:44.876Z,260.60
2018-03-19T18:09:13.154Z,234.68
2018-03-19T18:11:40.680Z,101.85
2018-03-19T18:14:08.203Z,52.42
2018-03-19T18:16:35.722Z,150.57
2018-03-19T18:19:04.079Z,107.70
2018-03-19T18:21:33.082Z,20.12
2018-03-19T18:24:01.388Z,14.93
2018-03-19T18:26:28.941Z,15.63
2018-03-19T18:28:56.454Z,15.05
2018-03-19T18:31:23.962Z,18.40
2018-03-19T18:33:51.454Z,18.20
2018-03-19T18:36:18.946Z,20.88
2018-03-19T18:38:46.534Z,21.48
2018-03-19T18:41:14.807Z,24.23
2018-03-19T18:43:43.100Z,22.13
2018-03-19T18:46:10.698Z,21.42
2018-03-19T18:48:38.320Z,19.40
2018-03-19T18:51:05.837Z,19.00
2018-03-19T18:53:33.329Z,18.17
2018-03-19T18:56:00.868Z,19.02
2018-03-19T18:58:29.155Z,22.65
2018-03-19T19:00:57.423Z,19.62
2018-03-19T19:03:25.676Z,19.65
2018-03-19T19:05:53.166Z,19.92
2018-03-19T19:08:21.412Z,15.73
2018-03-19T19:10:48.906Z,14.05
2018-03-19T19:13:17.162Z,14.68
2018-03-19T19:15:45.462Z,19.95
2018-03-19T19:18:13.703Z,19.40
2018-03-19T19:20:41.304Z,21.90
2018-03-19T19:23:08.807Z,24.30
2018-03-19T19:25:36.422Z,23.62
2018-03-19T19:28:03.916Z,27.13
2018-03-19T19:30:31.427Z,28.98
2018-03-19T19:32:58.931Z,45.00
2018-03-19T19:35:26.440Z,31.83
2018-03-19T19:37:54.715Z,29.67
2018-03-19T19:40:22.993Z,30.48
2018-03-19T19:42:51.258Z,29.67
2018-03-19T19:45:18.843Z,31.08
2018-03-19T19:47:47.103Z,36.60
2018-03-19T19:50:15.366Z,43.47
2018-03-19T19:52:42.954Z,46.03
2018-03-19T19:55:11.275Z,41.85
2018-03-19T19:57:38.787Z,44.35
2018-03-19T20:00:07.033Z,48.08
2018-03-19T20:02:34.621Z,44.67
2018-03-19T20:05:02.950Z,42.80
2018-03-19T20:07:30.403Z,40.20
2018-03-19T20:09:57.928Z,41.28
2018-03-19T20:12:26.304Z,46.15
2018-03-19T20:14:54.616Z,48.92
2018-03-19T20:17:22.146Z,47.45
2018-03-19T20:19:49.642Z,52.88
2018-03-19T20:22:17.172Z,52.70
2018-03-19T20:24:44.727Z,54.28
2018-03-19T20:27:12.287Z,53.87
2018-03-19T20:29:39.739Z,50.15
2018-03-19T20:32:07.238Z,53.95
2018-03-19T20:34:34.779Z,51.45
2018-03-19T20:37:02.293Z,46.60
2018-03-19T20:39:30.592Z,45.53
2018-03-19T20:41:58.084Z,41.08
2018-03-19T20:44:25.572Z,37.45
2018-03-19T20:46:53.173Z,33.05
2018-03-19T20:49:20.659Z,31.87
2018-03-19T20:51:48.184Z,28.15
2018-03-19T20:54:16.439Z,31.77
2018-03-19T20:56:43.937Z,26.50
2018-03-19T20:59:11.426Z,27.30
2018-03-19T21:01:38.920Z,25.02
2018-03-19T21:04:07.173Z,19.85
2018-03-19T21:06:34.679Z,20.37
2018-03-19T21:09:02.271Z,20.02
2018-03-19T21:11:29.819Z,23.52
2018-03-19T21:13:57.312Z,23.75
2018-03-19T21:16:26.355Z,21.30
2018-03-19T21:18:53.912Z,23.75
2018-03-19T21:21:21.421Z,20.70
2018-03-19T21:23:48.933Z,20.73
2018-03-19T21:26:16.441Z,19.25
2018-03-19T21:28:44.017Z,21.58
2018-03-19T21:31:11.564Z,23.55
2018-03-19T21:33:39.855Z,26.17
2018-03-19T21:36:07.402Z,20.15
2018-03-19T21:38:34.896Z,21.52
2018-03-19T21:41:02.540Z,21.27
2018-03-19T21:43:30.189Z,23.17
2018-03-19T21:45:57.659Z,22.02
2018-03-19T21:48:25.952Z,20.17
2018-03-19T21:50:53.455Z,19.83
2018-03-19T21:53:21.034Z,25.08
2018-03-19T21:55:48.634Z,21.85
2018-03-19T21:58:16.164Z,22.55
2018-03-19T22:00:43.684Z,23.60
2018-03-19T22:03:11.187Z,21.58
2018-03-19T22:05:38.686Z,20.40
2018-03-19T22:08:06.259Z,18.25
2018-03-19T22:10:33.815Z,23.23
2018-03-19T22:13:01.336Z,21.33
2018-03-19T22:15:28.853Z,20.85
2018-03-19T22:17:56.375Z,23.65
2018-03-19T22:20:24.640Z,21.37
2018-03-19T22:22:52.944Z,22.10
2018-03-19T22:25:20.443Z,22.87
2018-03-19T22:27:47.932Z,20.05
2018-03-19T22:30:16.267Z,21.00
2018-03-19T22:32:43.764Z,23.00
2018-03-19T22:35:12.028Z,19.98
2018-03-19T22:37:39.599Z,21.67
2018-03-19T22:40:08.082Z,21.75
2018-03-19T22:42:36.468Z,21.12
2018-03-19T22:45:03.994Z,22.70
2018-03-19T22:47:31.507Z,20.95
2018-03-19T22:49:59.038Z,18.42
2018-03-19T22:52:27.364Z,22.13
2018-03-19T22:54:54.849Z,20.35
2018-03-19T22:57:22.439Z,19.67
2018-03-19T22:59:50.712Z,19.37
2018-03-19T23:02:18.988Z,19.37
2018-03-19T23:04:49.947Z,19.42
2018-03-19T23:07:17.536Z,19.52
2018-03-19T23:09:45.031Z,23.15
2018-03-19T23:12:13.318Z,19.70
2018-03-19T23:14:41.575Z,20.42
2018-03-19T23:17:09.875Z,18.95
2018-03-19T23:19:38.170Z,18.40
2018-03-19T23:22:06.444Z,20.65
2018-03-19T23:24:34.006Z,20.33
2018-03-19T23:27:01.516Z,20.98
2018-03-19T23:29:29.106Z,23.12
2018-03-19T23:31:57.368Z,22.25
2018-03-19T23:34:24.860Z,22.48
2018-03-19T23:36:52.403Z,22.80
2018-03-19T23:39:20.680Z,23.58
2018-03-19T23:41:48.955Z,26.30
2018-03-19T23:44:17.213Z,25.27
2018-03-19T23:46:45.500Z,24.98
2018-03-19T23:49:13.782Z,24.35
2018-03-19T23:51:42.062Z,22.30
2018-03-19T23:54:10.315Z,20.90
2018-03-19T23:56:37.890Z,24.42
2018-03-19T23:59:06.157Z,23.75
